createdAt,value
2023-04-30T00:00:24.150Z,69.80
2023-04-30T00:02:52.010Z,69.80
2023-04-30T00:05:19.839Z,69.70
2023-04-30T00:07:47.548Z,69.70
2023-04-30T00:10:15.281Z,69.60
2023-04-30T00:12:43.336Z,69.60
2023-04-30T00:15:12.773Z,69.60
2023-04-30T00:17:40.883Z,69.60
2023-04-30T00:20:09.471Z,69.50
2023-04-30T00:22:37.204Z,69.50
2023-04-30T00:25:05.407Z,69.40
2023-04-30T00:27:33.173Z,69.40
2023-04-30T00:30:00.873Z,69.30
2023-04-30T00:32:29.959Z,69.30
2023-04-30T00:34:57.860Z,69.20
2023-04-30T00:37:25.585Z,69.20
2023-04-30T00:39:53.495Z,69.20
2023-04-30T00:42:21.364Z,69.10
2023-04-30T00:44:49.091Z,69.30
2023-04-30T00:47:17.061Z,69.30
2023-04-30T00:49:46.322Z,69.40
2023-04-30T00:52:14.874Z,69.40
2023-04-30T00:54:42.713Z,69.80
2023-04-30T00:57:13.672Z,69.60
2023-04-30T00:59:42.750Z,69.70
2023-04-30T01:02:11.285Z,69.70
2023-04-30T01:04:39.431Z,69.70
2023-04-30T01:07:08.583Z,69.60
2023-04-30T01:09:36.528Z,69.60
2023-04-30T01:12:16.492Z,69.70
2023-04-30T01:14:58.020Z,69.80
2023-04-30T01:17:32.961Z,69.70
2023-04-30T01:20:01.726Z,69.80
2023-04-30T01:22:38.214Z,69.80
2023-04-30T01:25:31.418Z,69.70
2023-04-30T01:28:05.918Z,69.70
2023-04-30T01:30:34.793Z,69.60
2023-04-30T01:33:03.170Z,69.60
2023-04-30T01:35:45.027Z,69.60
2023-04-30T01:38:21.917Z,69.60
2023-04-30T01:40:57.214Z,69.60
2023-04-30T01:43:35.028Z,69.60
2023-04-30T01:46:13.386Z,69.60
2023-04-30T01:48:47.411Z,69.70
2023-04-30T01:51:29.544Z,69.70
2023-04-30T01:54:02.452Z,69.70
2023-04-30T01:56:34.112Z,69.70
2023-04-30T01:59:05.017Z,69.70
2023-04-30T02:01:33.954Z,69.70
2023-04-30T02:04:01.821Z,69.70
2023-04-30T02:06:30.340Z,69.50
2023-04-30T02:09:03.053Z,69.60
2023-04-30T02:11:31.106Z,69.50
2023-04-30T02:13:58.869Z,69.60
2023-04-30T02:16:27.996Z,69.50
2023-04-30T02:18:55.794Z,69.50
2023-04-30T02:21:23.736Z,69.50
2023-04-30T02:23:51.507Z,69.60
2023-04-30T02:26:19.201Z,69.60
2023-04-30T02:28:47.005Z,69.70
2023-04-30T02:31:14.790Z,69.60
2023-04-30T02:33:43.908Z,69.60
2023-04-30T02:36:11.592Z,69.60
2023-04-30T02:38:39.548Z,69.60
2023-04-30T02:41:07.314Z,69.50
2023-04-30T02:43:35.288Z,69.60
2023-04-30T02:46:03.109Z,69.60
2023-04-30T02:48:31.168Z,69.60
2023-04-30T02:51:00.301Z,69.60
2023-04-30T02:53:28.015Z,69.60
2023-04-30T02:55:55.806Z,69.60
2023-04-30T02:58:23.595Z,69.60
2023-04-30T03:00:51.391Z,69.50
2023-04-30T03:03:19.259Z,69.50
2023-04-30T03:05:47.250Z,69.50
2023-04-30T03:08:16.333Z,69.60
2023-04-30T03:10:44.163Z,69.60
2023-04-30T03:13:11.977Z,69.60
2023-04-30T03:15:39.801Z,69.60
2023-04-30T03:18:07.761Z,69.60
2023-04-30T03:20:35.720Z,69.60
2023-04-30T03:23:03.616Z,69.60
2023-04-30T03:25:32.638Z,69.60
2023-04-30T03:28:00.680Z,69.50
2023-04-30T03:30:28.361Z,69.50
2023-04-30T03:32:56.186Z,69.50
2023-04-30T03:35:24.027Z,69.50
2023-04-30T03:37:52.037Z,69.50
2023-04-30T03:40:20.052Z,69.50
2023-04-30T03:42:51.261Z,69.50
2023-04-30T03:45:19.207Z,69.50
2023-04-30T03:47:47.218Z,69.50
2023-04-30T03:50:15.350Z,69.60
2023-04-30T03:52:43.088Z,69.50
2023-04-30T03:55:11.429Z,69.50
2023-04-30T03:57:40.348Z,69.50
2023-04-30T04:00:12.256Z,69.60
2023-04-30T04:02:40.175Z,69.60
2023-04-30T04:05:08.267Z,69.50
2023-04-30T04:07:35.995Z,69.50
2023-04-30T04:10:03.752Z,69.70
2023-04-30T04:12:31.502Z,69.80
2023-04-30T04:14:59.285Z,69.80
2023-04-30T04:17:28.716Z,69.80
2023-04-30T04:19:57.219Z,69.90
2023-04-30T04:22:25.113Z,69.90
2023-04-30T04:24:53.084Z,70.00
2023-04-30T04:27:21.152Z,70.00
2023-04-30T04:29:48.987Z,70.00
2023-04-30T04:32:16.704Z,69.90
2023-04-30T04:34:45.829Z,70.00
2023-04-30T04:37:13.582Z,70.00
2023-04-30T04:39:41.324Z,70.10
2023-04-30T04:42:09.597Z,70.10
2023-04-30T04:44:37.629Z,69.90
2023-04-30T04:47:06.028Z,69.70
2023-04-30T04:49:33.802Z,69.80
2023-04-30T04:52:03.967Z,69.60
2023-04-30T04:54:31.847Z,69.60
2023-04-30T04:56:59.552Z,69.50
2023-04-30T04:59:27.672Z,69.60
2023-04-30T05:01:56.478Z,69.50
2023-04-30T05:04:24.303Z,69.40
2023-04-30T05:06:52.074Z,69.30
2023-04-30T05:09:21.326Z,69.40
2023-04-30T05:11:49.186Z,69.30
2023-04-30T05:14:17.007Z,69.40
2023-04-30T05:16:44.895Z,69.30
2023-04-30T05:19:12.744Z,69.30
2023-04-30T05:21:40.806Z,69.20
2023-04-30T05:24:08.845Z,69.20
2023-04-30T05:26:37.978Z,69.30
2023-04-30T05:29:05.716Z,68.80
2023-04-30T05:31:33.579Z,68.60
2023-04-30T05:34:01.329Z,68.70
2023-04-30T05:36:29.147Z,68.70
2023-04-30T05:38:57.011Z,68.80
2023-04-30T05:41:24.830Z,68.90
2023-04-30T05:43:53.871Z,68.90
2023-04-30T05:46:21.583Z,69.00
2023-04-30T05:48:49.331Z,69.10
2023-04-30T05:51:17.251Z,69.20
2023-04-30T05:53:44.926Z,69.30
2023-04-30T05:56:13.202Z,69.10
2023-04-30T05:58:41.076Z,68.90
2023-04-30T06:01:11.194Z,68.80
2023-04-30T06:03:39.141Z,68.80
2023-04-30T06:06:07.004Z,68.80
2023-04-30T06:08:35.221Z,68.70
2023-04-30T06:11:05.000Z,68.70
2023-04-30T06:13:33.366Z,68.60
2023-04-30T06:16:01.204Z,68.70
2023-04-30T06:18:30.318Z,68.70
2023-04-30T06:20:58.034Z,68.70
2023-04-30T06:23:26.085Z,68.60
2023-04-30T06:25:53.802Z,68.70
2023-04-30T06:28:21.548Z,68.70
2023-04-30T06:30:49.399Z,68.60
2023-04-30T06:33:17.076Z,68.60
2023-04-30T06:35:46.464Z,68.60
2023-04-30T06:38:14.517Z,68.60
2023-04-30T06:40:42.241Z,68.50
2023-04-30T06:43:09.960Z,68.60
2023-04-30T06:45:37.779Z,68.60
2023-04-30T06:48:05.645Z,68.70
2023-04-30T06:50:33.448Z,68.70
2023-04-30T06:53:02.899Z,68.70
2023-04-30T06:55:30.810Z,68.70
2023-04-30T06:57:58.677Z,68.90
2023-04-30T07:00:26.543Z,68.90
2023-04-30T07:02:54.334Z,68.80
2023-04-30T07:05:22.163Z,68.90
2023-04-30T07:07:50.196Z,68.90
2023-04-30T07:10:19.373Z,69.00
2023-04-30T07:12:47.521Z,68.90
2023-04-30T07:15:15.351Z,69.00
2023-04-30T07:17:43.241Z,69.00
2023-04-30T07:20:12.997Z,68.90
2023-04-30T07:22:40.700Z,69.10
2023-04-30T07:25:09.468Z,69.20
2023-04-30T07:27:38.647Z,69.40
2023-04-30T07:30:08.308Z,69.70
2023-04-30T07:32:36.543Z,70.00
2023-04-30T07:35:04.977Z,70.20
2023-04-30T07:37:35.392Z,70.20
2023-04-30T07:40:04.282Z,70.10
2023-04-30T07:42:32.201Z,70.00
2023-04-30T07:45:02.433Z,69.90
2023-04-30T07:47:30.860Z,69.90
2023-04-30T07:49:58.562Z,69.80
2023-04-30T07:52:26.301Z,69.80
2023-04-30T07:54:53.998Z,69.90
2023-04-30T07:57:21.705Z,69.90
2023-04-30T07:59:51.417Z,70.00
2023-04-30T08:02:22.524Z,70.10
2023-04-30T08:04:50.576Z,70.30
2023-04-30T08:07:18.372Z,70.30
2023-04-30T08:09:46.087Z,70.30
2023-04-30T08:12:13.850Z,70.10
2023-04-30T08:14:41.519Z,69.70
2023-04-30T08:17:09.269Z,69.70
2023-04-30T08:19:38.345Z,69.70
2023-04-30T08:22:06.263Z,69.70
2023-04-30T08:24:34.008Z,70.60
2023-04-30T08:27:03.926Z,70.00
2023-04-30T08:29:31.877Z,70.00
2023-04-30T08:32:04.178Z,68.90
2023-04-30T08:34:31.919Z,68.80
2023-04-30T08:37:01.559Z,68.40
2023-04-30T08:39:29.315Z,69.40
2023-04-30T08:41:58.033Z,69.60
2023-04-30T08:44:28.340Z,69.80
2023-04-30T08:46:58.148Z,68.70
2023-04-30T08:49:26.264Z,69.70
2023-04-30T08:51:53.973Z,68.60
2023-04-30T08:54:25.490Z,68.60
2023-04-30T08:56:53.227Z,68.80
2023-04-30T08:59:21.142Z,68.70
2023-04-30T09:01:51.243Z,68.90
2023-04-30T09:04:20.874Z,68.70
2023-04-30T09:06:48.792Z,68.60
2023-04-30T09:09:17.334Z,68.50
2023-04-30T09:11:46.350Z,68.50
2023-04-30T09:14:14.181Z,68.60
2023-04-30T09:16:50.760Z,68.60
2023-04-30T09:19:26.197Z,68.70
2023-04-30T09:21:54.687Z,68.60
2023-04-30T09:24:22.561Z,68.70
2023-04-30T09:26:52.418Z,68.60
2023-04-30T09:29:20.354Z,68.60
2023-04-30T09:31:48.832Z,68.50
2023-04-30T09:34:16.637Z,68.50
2023-04-30T09:36:54.931Z,68.40
2023-04-30T09:39:23.574Z,68.30
2023-04-30T09:41:52.978Z,68.10
2023-04-30T09:44:30.566Z,68.20
2023-04-30T09:46:59.682Z,68.20
2023-04-30T09:49:27.946Z,68.20
2023-04-30T09:51:57.530Z,68.20
2023-04-30T09:54:28.229Z,68.30
2023-04-30T09:57:10.061Z,68.20
2023-04-30T09:59:39.652Z,68.20
2023-04-30T10:02:08.685Z,68.20
2023-04-30T10:04:38.591Z,68.30
2023-04-30T10:07:10.139Z,68.40
2023-04-30T10:09:42.892Z,68.30
2023-04-30T10:12:15.833Z,68.10
2023-04-30T10:14:53.006Z,68.10
2023-04-30T10:17:25.081Z,68.00
2023-04-30T10:19:56.356Z,68.00
2023-04-30T10:22:25.002Z,68.00
2023-04-30T10:24:53.734Z,68.10
2023-04-30T10:27:22.936Z,68.00
2023-04-30T10:29:52.347Z,67.80
2023-04-30T10:32:21.601Z,67.80
2023-04-30T10:34:57.440Z,67.70
2023-04-30T10:37:35.956Z,67.70
2023-04-30T10:40:05.799Z,67.70
2023-04-30T10:42:37.485Z,67.60
2023-04-30T10:45:05.702Z,67.60
2023-04-30T10:47:33.687Z,67.50
2023-04-30T10:50:06.381Z,67.50
2023-04-30T10:52:34.206Z,67.40
2023-04-30T10:55:05.920Z,68.10
2023-04-30T10:57:41.381Z,67.20
2023-04-30T11:00:27.480Z,67.20
2023-04-30T11:02:58.496Z,67.30
2023-04-30T11:05:38.469Z,67.40
2023-04-30T11:08:07.174Z,67.40
2023-04-30T11:10:36.980Z,67.50
2023-04-30T11:13:06.713Z,67.50
2023-04-30T11:15:41.910Z,67.60
2023-04-30T11:18:10.424Z,67.40
2023-04-30T11:20:41.906Z,67.50
2023-04-30T11:23:11.015Z,67.40
2023-04-30T11:25:43.084Z,67.50
2023-04-30T11:28:16.122Z,67.40
2023-04-30T11:30:52.207Z,67.20
2023-04-30T11:33:20.712Z,67.20
2023-04-30T11:35:52.116Z,67.30
2023-04-30T11:38:21.831Z,67.20
2023-04-30T11:40:50.070Z,67.30
2023-04-30T11:43:24.947Z,67.30
2023-04-30T11:46:11.930Z,67.40
2023-04-30T11:48:42.182Z,67.30
2023-04-30T11:51:16.719Z,67.30
2023-04-30T11:53:46.610Z,67.40
2023-04-30T11:56:14.313Z,67.30
2023-04-30T11:58:42.326Z,67.40
2023-04-30T12:01:11.612Z,67.40
2023-04-30T12:03:43.125Z,67.30
2023-04-30T12:06:12.635Z,67.40
2023-04-30T12:08:42.817Z,67.50
2023-04-30T12:11:21.684Z,67.30
2023-04-30T12:13:57.178Z,67.30
2023-04-30T12:16:26.565Z,67.30
2023-04-30T12:18:54.375Z,67.30
2023-04-30T12:21:22.933Z,67.20
2023-04-30T12:23:50.760Z,67.20
2023-04-30T12:26:18.798Z,67.20
2023-04-30T12:28:48.592Z,67.20
2023-04-30T12:31:18.789Z,67.20
2023-04-30T12:33:56.259Z,67.30
2023-04-30T12:36:30.011Z,67.90
2023-04-30T12:39:11.809Z,67.20
2023-04-30T12:41:42.793Z,67.20
2023-04-30T12:44:21.424Z,67.10
2023-04-30T12:46:50.514Z,67.10
2023-04-30T12:49:30.372Z,67.20
2023-04-30T12:52:00.437Z,67.20
2023-04-30T12:54:29.012Z,67.20
2023-04-30T12:57:01.858Z,67.10
2023-04-30T12:59:30.206Z,67.40
2023-04-30T13:02:07.946Z,67.10
2023-04-30T13:04:37.353Z,67.20
2023-04-30T13:07:05.447Z,67.10
2023-04-30T13:09:33.784Z,67.10
2023-04-30T13:12:01.795Z,67.30
2023-04-30T13:14:29.589Z,67.20
2023-04-30T13:16:57.419Z,67.20
2023-04-30T13:19:25.365Z,67.00
2023-04-30T13:21:54.414Z,67.10
2023-04-30T13:24:22.180Z,67.20
2023-04-30T13:26:50.051Z,67.10
2023-04-30T13:29:20.947Z,67.20
2023-04-30T13:31:49.252Z,67.10
2023-04-30T13:34:17.096Z,67.10
2023-04-30T13:36:46.680Z,67.10
2023-04-30T13:39:17.117Z,67.00
2023-04-30T13:41:44.981Z,67.00
2023-04-30T13:44:16.797Z,67.00
2023-04-30T13:46:44.712Z,66.90
2023-04-30T13:49:12.435Z,66.90
2023-04-30T13:51:40.292Z,66.80
2023-04-30T13:54:08.004Z,66.80
2023-04-30T13:56:37.094Z,66.80
2023-04-30T13:59:05.193Z,66.90
2023-04-30T14:01:34.459Z,66.90
2023-04-30T14:04:02.359Z,67.00
2023-04-30T14:06:30.455Z,66.80
2023-04-30T14:08:58.435Z,66.90
2023-04-30T14:11:27.263Z,66.80
2023-04-30T14:13:56.328Z,66.80
2023-04-30T14:16:24.133Z,66.70
2023-04-30T14:18:52.095Z,66.60
2023-04-30T14:21:19.773Z,66.60
2023-04-30T14:23:47.658Z,66.60
2023-04-30T14:26:15.764Z,66.50
2023-04-30T14:28:43.519Z,66.40
2023-04-30T14:31:12.624Z,66.20
2023-04-30T14:33:40.716Z,66.20
2023-04-30T14:36:08.976Z,66.20
2023-04-30T14:38:36.684Z,66.20
2023-04-30T14:41:04.457Z,66.20
2023-04-30T14:43:32.156Z,66.20
2023-04-30T14:45:59.932Z,66.10
2023-04-30T14:48:28.975Z,66.10
2023-04-30T14:50:56.754Z,66.10
2023-04-30T14:53:24.550Z,66.30
2023-04-30T14:55:52.315Z,66.30
2023-04-30T14:58:20.066Z,66.30
2023-04-30T15:00:48.416Z,66.40
2023-04-30T15:03:16.442Z,66.40
2023-04-30T15:05:46.004Z,66.40
2023-04-30T15:08:13.818Z,66.40
2023-04-30T15:10:41.592Z,66.30
2023-04-30T15:13:09.392Z,66.50
2023-04-30T15:15:37.325Z,66.60
2023-04-30T15:18:05.765Z,66.60
2023-04-30T15:20:33.620Z,66.60
2023-04-30T15:23:02.707Z,66.40
2023-04-30T15:25:31.297Z,66.50
2023-04-30T15:27:59.513Z,66.40
2023-04-30T15:30:27.366Z,66.40
2023-04-30T15:32:55.284Z,66.30
2023-04-30T15:35:23.091Z,66.30
2023-04-30T15:37:50.986Z,66.20
2023-04-30T15:40:20.230Z,66.20
2023-04-30T15:42:47.960Z,66.00
2023-04-30T15:45:16.194Z,66.00
2023-04-30T15:47:43.964Z,66.00
2023-04-30T15:50:12.262Z,65.80
2023-04-30T15:52:40.345Z,65.80
2023-04-30T15:55:09.292Z,65.70
2023-04-30T15:57:38.375Z,65.70
2023-04-30T16:00:07.459Z,65.60
2023-04-30T16:02:35.700Z,65.50
2023-04-30T16:05:04.400Z,65.50
2023-04-30T16:07:32.577Z,65.50
2023-04-30T16:10:01.681Z,65.70
2023-04-30T16:12:29.444Z,65.40
2023-04-30T16:14:58.467Z,65.70
2023-04-30T16:17:26.308Z,65.80
2023-04-30T16:19:54.098Z,65.90
2023-04-30T16:22:22.327Z,65.70
2023-04-30T16:24:50.044Z,65.80
2023-04-30T16:27:17.756Z,65.80
2023-04-30T16:29:45.459Z,65.90
2023-04-30T16:32:14.716Z,65.90
2023-04-30T16:34:42.905Z,65.90
2023-04-30T16:37:11.082Z,66.00
2023-04-30T16:39:40.569Z,65.90
2023-04-30T16:42:11.093Z,65.90
2023-04-30T16:44:41.174Z,66.00
2023-04-30T16:47:09.318Z,66.00
2023-04-30T16:49:38.554Z,65.90
2023-04-30T16:52:06.550Z,65.90
2023-04-30T16:54:36.223Z,66.00
2023-04-30T16:57:06.149Z,65.90
2023-04-30T16:59:34.164Z,65.90
2023-04-30T17:02:02.607Z,65.90
2023-04-30T17:04:32.094Z,65.90
2023-04-30T17:07:01.201Z,66.00
2023-04-30T17:09:29.685Z,65.70
2023-04-30T17:11:57.832Z,65.70
2023-04-30T17:14:26.955Z,65.70
2023-04-30T17:16:55.004Z,65.60
2023-04-30T17:19:26.176Z,65.60
2023-04-30T17:21:54.106Z,65.60
2023-04-30T17:24:24.259Z,65.50
2023-04-30T17:26:57.444Z,65.60
2023-04-30T17:29:25.474Z,65.50
2023-04-30T17:31:54.433Z,65.50
2023-04-30T17:34:24.174Z,65.40
2023-04-30T17:36:51.960Z,65.40
2023-04-30T17:39:19.985Z,65.30
2023-04-30T17:41:51.107Z,65.30
2023-04-30T17:44:20.084Z,65.30
2023-04-30T17:46:48.618Z,65.30
2023-04-30T17:49:17.883Z,65.20
2023-04-30T17:51:48.791Z,65.30
2023-04-30T17:54:17.233Z,65.30
2023-04-30T17:56:47.115Z,65.20
2023-04-30T17:59:16.485Z,65.20
2023-04-30T18:01:46.330Z,65.20
2023-04-30T18:04:17.890Z,65.30
2023-04-30T18:06:47.979Z,65.30
2023-04-30T18:09:16.418Z,65.30
2023-04-30T18:11:45.019Z,65.30
2023-04-30T18:14:13.357Z,65.10
2023-04-30T18:16:44.997Z,65.10
2023-04-30T18:19:16.077Z,65.10
2023-04-30T18:21:45.306Z,65.20
2023-04-30T18:24:14.397Z,65.20
2023-04-30T18:26:43.104Z,65.20
2023-04-30T18:29:11.741Z,65.20
2023-04-30T18:31:39.547Z,65.10
2023-04-30T18:34:11.472Z,65.00
2023-04-30T18:36:39.351Z,65.20
2023-04-30T18:39:07.478Z,65.10
2023-04-30T18:41:35.179Z,65.30
2023-04-30T18:44:03.907Z,65.20
2023-04-30T18:46:31.887Z,65.40
2023-04-30T18:49:00.238Z,65.40
2023-04-30T18:51:29.454Z,65.50
2023-04-30T18:53:57.731Z,65.60
2023-04-30T18:56:26.117Z,65.60
2023-04-30T18:58:53.865Z,65.50
2023-04-30T19:01:22.949Z,65.50
2023-04-30T19:03:50.846Z,65.70
2023-04-30T19:06:18.966Z,65.80
2023-04-30T19:08:48.154Z,65.70
2023-04-30T19:11:16.415Z,65.80
2023-04-30T19:13:46.024Z,65.70
2023-04-30T19:16:14.316Z,65.80
2023-04-30T19:18:42.270Z,65.80
2023-04-30T19:21:14.176Z,66.50
2023-04-30T19:23:42.666Z,65.80
2023-04-30T19:26:12.205Z,66.90
2023-04-30T19:28:41.708Z,66.90
2023-04-30T19:31:12.331Z,67.10
2023-04-30T19:33:42.845Z,67.10
2023-04-30T19:36:10.949Z,67.10
2023-04-30T19:38:39.083Z,67.10
2023-04-30T19:41:07.278Z,67.20
2023-04-30T19:43:39.540Z,67.20
2023-04-30T19:46:08.670Z,67.20
2023-04-30T19:48:36.611Z,67.20
2023-04-30T19:51:05.870Z,67.10
2023-04-30T19:53:33.773Z,67.10
2023-04-30T19:56:01.504Z,67.00
2023-04-30T19:58:29.261Z,67.00
2023-04-30T20:00:58.427Z,67.10
2023-04-30T20:03:26.515Z,67.30
2023-04-30T20:05:54.351Z,67.40
2023-04-30T20:08:23.003Z,67.30
2023-04-30T20:10:50.805Z,67.30
2023-04-30T20:13:21.036Z,67.30
2023-04-30T20:15:50.004Z,67.30
2023-04-30T20:18:19.119Z,67.20
2023-04-30T20:20:47.404Z,67.30
2023-04-30T20:23:16.633Z,67.30
2023-04-30T20:25:45.929Z,67.20
2023-04-30T20:28:15.546Z,67.20
2023-04-30T20:30:44.529Z,67.10
2023-04-30T20:33:12.793Z,67.10
2023-04-30T20:35:44.210Z,67.10
2023-04-30T20:38:13.078Z,67.10
2023-04-30T20:40:41.738Z,67.30
2023-04-30T20:43:10.888Z,67.40
2023-04-30T20:45:38.639Z,67.30
2023-04-30T20:48:07.431Z,67.30
2023-04-30T20:50:35.405Z,67.40
2023-04-30T20:53:04.633Z,67.30
2023-04-30T20:55:32.439Z,67.40
2023-04-30T20:58:00.149Z,67.40
2023-04-30T21:00:28.208Z,67.40
2023-04-30T21:02:56.256Z,67.40
2023-04-30T21:05:24.090Z,67.30
2023-04-30T21:07:52.694Z,67.40
2023-04-30T21:10:21.771Z,67.40
2023-04-30T21:12:49.490Z,67.40
2023-04-30T21:15:17.495Z,67.40
2023-04-30T21:17:45.313Z,67.30
2023-04-30T21:20:13.911Z,67.40
2023-04-30T21:22:42.152Z,67.40
2023-04-30T21:25:12.298Z,67.40
2023-04-30T21:27:41.347Z,67.40
2023-04-30T21:30:10.223Z,67.40
2023-04-30T21:32:38.357Z,67.30
2023-04-30T21:35:06.900Z,67.30
2023-04-30T21:37:34.595Z,67.40
2023-04-30T21:40:02.305Z,67.40
2023-04-30T21:42:30.152Z,67.40
2023-04-30T21:44:59.235Z,67.50
2023-04-30T21:47:27.059Z,67.50
2023-04-30T21:49:54.986Z,67.50
2023-04-30T21:52:23.150Z,67.50
2023-04-30T21:54:50.990Z,67.40
2023-04-30T21:57:19.166Z,67.50
2023-04-30T21:59:46.871Z,67.50
2023-04-30T22:02:23.777Z,67.40
2023-04-30T22:04:53.469Z,67.40
2023-04-30T22:07:21.505Z,67.40
2023-04-30T22:09:49.213Z,67.40
2023-04-30T22:12:19.097Z,67.40
2023-04-30T22:14:47.184Z,67.40
2023-04-30T22:17:16.206Z,67.40
2023-04-30T22:19:43.927Z,68.10
2023-04-30T22:22:11.898Z,67.40
2023-04-30T22:24:39.973Z,67.40
2023-04-30T22:27:08.494Z,67.50
2023-04-30T22:29:36.196Z,67.40
2023-04-30T22:32:04.635Z,67.40
2023-04-30T22:34:35.554Z,67.50
2023-04-30T22:37:03.999Z,67.40
2023-04-30T22:39:31.834Z,67.40
2023-04-30T22:41:59.616Z,67.40
2023-04-30T22:44:27.601Z,67.50
2023-04-30T22:46:57.949Z,67.40
2023-04-30T22:49:31.248Z,67.30
2023-04-30T22:52:01.226Z,67.40
2023-04-30T22:54:29.281Z,67.30
2023-04-30T22:56:58.111Z,67.40
2023-04-30T22:59:25.892Z,67.40
2023-04-30T23:01:53.659Z,67.40
2023-04-30T23:04:21.394Z,67.30
2023-04-30T23:06:49.247Z,67.20
2023-04-30T23:09:19.076Z,67.20
2023-04-30T23:11:46.803Z,67.20
2023-04-30T23:14:14.762Z,67.10
2023-04-30T23:16:42.748Z,67.10
2023-04-30T23:19:11.010Z,67.10
2023-04-30T23:21:38.960Z,67.20
2023-04-30T23:24:06.701Z,67.00
2023-04-30T23:26:36.060Z,67.10
2023-04-30T23:29:03.969Z,67.10
2023-04-30T23:31:31.727Z,67.20
2023-04-30T23:33:59.549Z,67.10
2023-04-30T23:36:27.235Z,67.10
2023-04-30T23:38:54.927Z,67.00
2023-04-30T23:41:22.609Z,67.10
2023-04-30T23:43:51.719Z,67.10
2023-04-30T23:46:20.559Z,67.10
2023-04-30T23:48:49.360Z,67.10
2023-04-30T23:51:18.416Z,67.10
2023-04-30T23:53:46.164Z,67.10
2023-04-30T23:56:13.897Z,67.30
2023-04-30T23:58:41.635Z,67.30
